createdAt,value
2022-08-17T00:02:15.295Z,26.00
2022-08-17T00:04:52.625Z,25.90
2022-08-17T00:07:19.469Z,25.90
2022-08-17T00:09:46.789Z,25.90
2022-08-17T00:12:41.041Z,25.80
2022-08-17T00:15:01.349Z,25.80
2022-08-17T00:17:28.178Z,25.80
2022-08-17T00:19:55.037Z,25.70
2022-08-17T00:22:35.077Z,25.70
2022-08-17T00:25:09.836Z,25.70
2022-08-17T00:27:36.996Z,25.60
2022-08-17T00:30:07.199Z,25.60
2022-08-17T00:33:11.932Z,25.60
2022-08-17T00:35:30.091Z,25.50
2022-08-17T00:37:56.979Z,25.50
2022-08-17T00:40:24.975Z,25.50
2022-08-17T00:42:53.221Z,25.50
2022-08-17T00:45:20.884Z,25.50
2022-08-17T00:47:48.488Z,25.40
2022-08-17T00:50:18.275Z,25.40
2022-08-17T00:52:54.926Z,25.40
2022-08-17T00:55:22.754Z,25.40
2022-08-17T00:57:55.562Z,25.40
2022-08-17T01:00:40.686Z,25.40
2022-08-17T01:03:13.131Z,25.40
2022-08-17T01:05:42.246Z,25.30
2022-08-17T01:08:13.382Z,25.40
2022-08-17T01:10:58.482Z,25.30
2022-08-17T01:13:40.671Z,25.30
2022-08-17T01:16:20.081Z,25.30
2022-08-17T01:18:50.666Z,25.30
2022-08-17T01:21:28.228Z,25.30
2022-08-17T01:23:56.079Z,25.30
2022-08-17T01:26:23.225Z,25.30
2022-08-17T01:28:55.004Z,25.30
2022-08-17T01:31:24.746Z,25.30
2022-08-17T01:33:51.592Z,25.20
2022-08-17T01:36:18.499Z,25.20
2022-08-17T01:38:45.310Z,25.20
2022-08-17T01:41:15.481Z,25.20
2022-08-17T01:43:54.319Z,25.20
2022-08-17T01:46:27.616Z,25.20
2022-08-17T01:48:56.343Z,25.10
2022-08-17T01:51:25.939Z,25.20
2022-08-17T01:53:57.598Z,25.10
2022-08-17T01:56:26.143Z,25.10
2022-08-17T01:58:53.405Z,25.10
2022-08-17T02:01:22.965Z,25.10
2022-08-17T02:03:56.324Z,25.10
2022-08-17T02:06:30.545Z,25.10
2022-08-17T02:09:02.291Z,25.10
2022-08-17T02:11:33.198Z,25.10
2022-08-17T02:14:03.110Z,25.00
2022-08-17T02:16:37.853Z,25.10
2022-08-17T02:19:06.833Z,25.00
2022-08-17T02:21:34.053Z,25.00
2022-08-17T02:24:01.100Z,25.00
2022-08-17T02:26:28.136Z,25.00
2022-08-17T02:28:55.010Z,25.00
2022-08-17T02:31:21.821Z,25.00
2022-08-17T02:34:00.294Z,24.90
2022-08-17T02:36:34.196Z,24.90
2022-08-17T02:39:07.611Z,24.90
2022-08-17T02:41:35.472Z,24.90
2022-08-17T02:44:02.835Z,24.80
2022-08-17T02:46:31.044Z,24.90
2022-08-17T02:48:58.633Z,24.90
2022-08-17T02:51:26.466Z,24.90
2022-08-17T02:53:53.380Z,24.90
2022-08-17T02:56:40.165Z,25.00
2022-08-17T02:59:07.017Z,25.00
2022-08-17T03:01:34.256Z,25.10
2022-08-17T03:04:01.378Z,25.20
2022-08-17T03:06:29.630Z,25.20
2022-08-17T03:08:56.433Z,25.30
2022-08-17T03:11:23.624Z,25.40
2022-08-17T03:13:51.090Z,25.40
2022-08-17T03:16:17.903Z,25.50
2022-08-17T03:18:44.687Z,25.60
2022-08-17T03:21:12.039Z,25.60
2022-08-17T03:23:41.174Z,25.70
2022-08-17T03:26:15.304Z,25.80
2022-08-17T03:28:42.630Z,25.80
2022-08-17T03:31:09.511Z,25.80
2022-08-17T03:33:36.315Z,25.90
2022-08-17T03:36:03.463Z,25.90
2022-08-17T03:38:30.390Z,26.00
2022-08-17T03:41:07.128Z,26.00
2022-08-17T03:43:34.638Z,26.00
2022-08-17T03:46:34.422Z,26.10
2022-08-17T03:49:25.786Z,26.10
2022-08-17T03:52:12.618Z,26.10
2022-08-17T03:54:58.532Z,26.20
2022-08-17T03:57:26.028Z,26.20
2022-08-17T03:59:53.914Z,26.20
2022-08-17T04:02:28.556Z,26.20
2022-08-17T04:04:55.731Z,26.20
2022-08-17T04:07:25.165Z,26.30
2022-08-17T04:09:52.208Z,26.30
2022-08-17T04:12:22.460Z,26.30
2022-08-17T04:14:51.834Z,26.30
2022-08-17T04:17:20.398Z,26.30
2022-08-17T04:19:47.522Z,26.30
2022-08-17T04:22:32.233Z,26.30
2022-08-17T04:25:14.429Z,26.30
2022-08-17T04:27:41.232Z,26.40
2022-08-17T04:30:10.076Z,26.30
2022-08-17T04:33:05.836Z,26.30
2022-08-17T04:35:41.201Z,26.30
2022-08-17T04:38:10.591Z,26.30
2022-08-17T04:40:56.292Z,26.30
2022-08-17T04:43:24.959Z,26.20
2022-08-17T04:45:57.462Z,26.20
2022-08-17T04:48:29.715Z,26.20
2022-08-17T04:51:09.767Z,26.20
2022-08-17T04:53:37.410Z,26.20
2022-08-17T04:56:04.884Z,26.20
2022-08-17T04:58:31.767Z,26.20
2022-08-17T05:00:58.669Z,26.20
2022-08-17T05:03:26.049Z,26.20
2022-08-17T05:05:53.740Z,26.20
2022-08-17T05:08:21.255Z,26.20
2022-08-17T05:10:48.843Z,26.20
2022-08-17T05:13:22.475Z,26.20
2022-08-17T05:15:52.816Z,26.30
2022-08-17T05:18:19.707Z,26.30
2022-08-17T05:20:46.742Z,26.40
2022-08-17T05:23:16.837Z,26.40
2022-08-17T05:25:47.618Z,26.50
2022-08-17T05:28:16.812Z,26.50
2022-08-17T05:30:46.340Z,26.50
2022-08-17T05:33:22.525Z,26.50
2022-08-17T05:35:51.418Z,26.50
2022-08-17T05:38:20.400Z,26.50
2022-08-17T05:40:47.380Z,26.60
2022-08-17T05:43:16.182Z,26.60
2022-08-17T05:45:55.115Z,26.70
2022-08-17T05:48:35.486Z,26.80
2022-08-17T05:51:16.415Z,26.80
2022-08-17T05:53:43.152Z,26.90
2022-08-17T05:56:29.163Z,27.00
2022-08-17T05:59:22.478Z,27.00
2022-08-17T06:02:20.884Z,27.20
2022-08-17T06:05:01.509Z,27.20
2022-08-17T06:07:48.073Z,27.30
2022-08-17T06:10:43.998Z,27.30
2022-08-17T06:13:20.077Z,27.40
2022-08-17T06:16:28.231Z,27.50
2022-08-17T06:19:06.204Z,27.50
2022-08-17T06:21:40.757Z,27.50
2022-08-17T06:24:34.273Z,27.60
2022-08-17T06:27:19.811Z,27.60
2022-08-17T06:30:12.442Z,27.60
2022-08-17T06:32:43.473Z,27.60
2022-08-17T06:35:13.981Z,27.70
2022-08-17T06:37:40.762Z,27.70
2022-08-17T06:40:38.826Z,27.70
2022-08-17T06:43:48.259Z,27.70
2022-08-17T06:46:15.043Z,27.80
2022-08-17T06:49:18.193Z,27.80
2022-08-17T06:52:42.173Z,27.80
2022-08-17T06:55:21.146Z,27.80
2022-08-17T06:57:57.428Z,27.80
2022-08-17T07:00:29.129Z,27.80
2022-08-17T07:03:06.949Z,27.80
2022-08-17T07:05:40.008Z,27.80
2022-08-17T07:08:35.493Z,27.80
2022-08-17T07:11:08.871Z,27.80
2022-08-17T07:13:51.468Z,27.80
2022-08-17T07:16:27.978Z,27.80
2022-08-17T07:18:57.283Z,27.80
2022-08-17T07:21:47.649Z,27.80
2022-08-17T07:24:38.110Z,27.70
2022-08-17T07:27:22.058Z,27.70
2022-08-17T07:30:01.040Z,27.70
2022-08-17T07:32:32.495Z,27.70
2022-08-17T07:35:11.461Z,27.70
2022-08-17T07:37:43.972Z,27.80
2022-08-17T07:41:02.771Z,27.80
2022-08-17T07:43:41.755Z,27.80
2022-08-17T07:46:29.994Z,27.90
2022-08-17T07:49:03.316Z,27.80
2022-08-17T07:51:43.307Z,27.80
2022-08-17T07:54:15.822Z,27.90
2022-08-17T07:56:50.487Z,27.90
2022-08-17T07:59:36.063Z,27.90
2022-08-17T08:02:08.112Z,27.90
2022-08-17T08:04:59.547Z,28.00
2022-08-17T08:07:37.386Z,28.00
2022-08-17T08:10:04.397Z,28.00
2022-08-17T08:12:39.522Z,28.00
2022-08-17T08:15:12.277Z,28.00
2022-08-17T08:17:57.538Z,28.00
2022-08-17T08:21:09.772Z,28.00
2022-08-17T08:23:36.911Z,28.00
2022-08-17T08:26:20.471Z,28.10
2022-08-17T08:29:14.310Z,28.10
2022-08-17T08:32:07.609Z,28.10
2022-08-17T08:35:00.581Z,28.10
2022-08-17T08:37:36.722Z,28.10
2022-08-17T08:40:38.361Z,28.10
2022-08-17T08:43:17.070Z,28.10
2022-08-17T08:46:23.712Z,28.20
2022-08-17T08:49:33.849Z,28.20
2022-08-17T08:52:24.703Z,28.20
2022-08-17T08:55:10.257Z,28.20
2022-08-17T08:57:44.191Z,28.20
2022-08-17T09:00:24.096Z,28.20
2022-08-17T09:02:59.872Z,28.10
2022-08-17T09:05:48.580Z,28.20
2022-08-17T09:08:39.132Z,28.10
2022-08-17T09:11:13.101Z,28.10
2022-08-17T09:13:43.132Z,28.10
2022-08-17T09:16:16.288Z,28.10
2022-08-17T09:19:01.333Z,28.10
2022-08-17T09:21:55.346Z,28.10
2022-08-17T09:24:33.309Z,28.10
2022-08-17T09:27:18.526Z,28.10
2022-08-17T09:29:58.815Z,28.10
2022-08-17T09:32:34.436Z,28.10
2022-08-17T09:35:10.432Z,28.10
2022-08-17T09:37:53.774Z,28.00
2022-08-17T09:40:27.058Z,28.00
2022-08-17T09:43:24.735Z,28.00
2022-08-17T09:45:57.345Z,28.00
2022-08-17T09:48:55.337Z,28.00
2022-08-17T09:51:34.887Z,28.00
2022-08-17T09:54:34.791Z,28.10
2022-08-17T09:57:29.230Z,28.10
2022-08-17T09:59:59.086Z,28.10
2022-08-17T10:02:50.884Z,28.30
2022-08-17T10:05:32.023Z,28.30
2022-08-17T10:08:09.200Z,28.30
2022-08-17T10:10:52.437Z,28.40
2022-08-17T10:13:47.192Z,28.50
2022-08-17T10:16:39.787Z,28.50
2022-08-17T10:19:14.914Z,28.60
2022-08-17T10:22:32.376Z,28.70
2022-08-17T10:25:22.164Z,28.80
2022-08-17T10:28:05.078Z,28.90
2022-08-17T10:30:36.302Z,28.90
2022-08-17T10:33:07.145Z,29.00
2022-08-17T10:35:53.731Z,29.10
2022-08-17T10:38:39.196Z,29.10
2022-08-17T10:41:21.255Z,29.10
2022-08-17T10:44:38.659Z,29.20
2022-08-17T10:47:14.428Z,29.20
2022-08-17T10:49:49.481Z,29.30
2022-08-17T10:52:30.483Z,29.30
2022-08-17T10:55:15.351Z,29.30
2022-08-17T10:57:48.036Z,29.30
2022-08-17T11:00:35.136Z,29.30
2022-08-17T11:03:02.584Z,29.40
2022-08-17T11:05:43.967Z,29.40
2022-08-17T11:08:23.274Z,29.40
2022-08-17T11:11:01.986Z,29.40
2022-08-17T11:14:23.970Z,29.40
2022-08-17T11:16:59.346Z,29.40
2022-08-17T11:19:41.176Z,29.40
2022-08-17T11:22:57.848Z,29.40
2022-08-17T11:25:39.977Z,29.40
2022-08-17T11:28:19.202Z,29.40
2022-08-17T11:30:49.890Z,29.40
2022-08-17T11:33:36.861Z,29.30
2022-08-17T11:36:25.225Z,29.30
2022-08-17T11:39:04.648Z,29.30
2022-08-17T11:42:10.191Z,29.30
2022-08-17T11:44:44.643Z,29.40
2022-08-17T11:47:38.234Z,29.40
2022-08-17T11:50:38.797Z,29.40
2022-08-17T11:53:06.897Z,29.40
2022-08-17T11:55:37.486Z,29.40
2022-08-17T11:58:37.400Z,29.40
2022-08-17T12:01:07.203Z,29.50
2022-08-17T12:03:33.964Z,29.50
2022-08-17T12:06:06.014Z,29.60
2022-08-17T12:08:34.237Z,29.60
2022-08-17T12:11:06.940Z,29.60
2022-08-17T12:13:43.092Z,29.70
2022-08-17T12:16:15.170Z,29.70
2022-08-17T12:18:53.963Z,29.70
2022-08-17T12:21:32.703Z,29.80
2022-08-17T12:24:14.695Z,29.80
2022-08-17T12:26:44.086Z,29.80
2022-08-17T12:29:18.497Z,29.90
2022-08-17T12:32:06.871Z,29.90
2022-08-17T12:34:39.835Z,29.90
2022-08-17T12:37:21.553Z,30.00
2022-08-17T12:40:06.481Z,30.00
2022-08-17T12:42:37.506Z,30.00
2022-08-17T12:45:23.387Z,30.00
2022-08-17T12:48:06.555Z,30.00
2022-08-17T12:50:37.163Z,30.10
2022-08-17T12:53:10.371Z,30.10
2022-08-17T12:55:38.911Z,30.10
2022-08-17T12:58:14.267Z,30.10
2022-08-17T13:00:48.902Z,30.10
2022-08-17T13:03:17.032Z,30.20
2022-08-17T13:05:57.574Z,30.20
2022-08-17T13:08:44.395Z,30.30
2022-08-17T13:11:14.618Z,30.30
2022-08-17T13:13:44.951Z,30.30
2022-08-17T13:16:11.822Z,30.30
2022-08-17T13:18:43.391Z,30.30
2022-08-17T13:21:19.442Z,30.30
2022-08-17T13:24:17.408Z,30.30
2022-08-17T13:26:54.598Z,30.30
2022-08-17T13:29:27.460Z,30.30
2022-08-17T13:32:16.295Z,30.30
2022-08-17T13:35:07.765Z,30.30
2022-08-17T13:37:37.048Z,30.40
2022-08-17T13:40:10.006Z,30.40
2022-08-17T13:42:52.381Z,30.40
2022-08-17T13:45:36.514Z,30.40
2022-08-17T13:48:08.833Z,30.50
2022-08-17T13:50:49.417Z,30.50
2022-08-17T13:53:37.798Z,30.50
2022-08-17T13:56:38.205Z,30.50
2022-08-17T13:59:03.709Z,30.60
2022-08-17T14:01:38.409Z,30.60
2022-08-17T14:04:11.836Z,30.60
2022-08-17T14:06:55.361Z,30.60
2022-08-17T14:09:38.153Z,30.60
2022-08-17T14:12:16.246Z,30.70
2022-08-17T14:14:44.404Z,30.70
2022-08-17T14:17:12.078Z,30.70
2022-08-17T14:19:39.609Z,30.70
2022-08-17T14:22:11.582Z,30.80
2022-08-17T14:24:45.046Z,30.80
2022-08-17T14:27:12.327Z,30.80
2022-08-17T14:29:41.232Z,30.80
2022-08-17T14:32:20.582Z,30.90
2022-08-17T14:34:49.495Z,30.80
2022-08-17T14:37:17.770Z,30.90
2022-08-17T14:39:44.980Z,30.90
2022-08-17T14:42:12.026Z,30.90
2022-08-17T14:44:39.789Z,31.00
2022-08-17T14:47:12.251Z,31.00
2022-08-17T14:49:39.115Z,31.00
2022-08-17T14:52:06.089Z,31.00
2022-08-17T14:54:34.614Z,31.00
2022-08-17T14:57:22.819Z,31.10
2022-08-17T14:59:53.372Z,31.10
2022-08-17T15:02:29.200Z,31.10
2022-08-17T15:05:03.450Z,31.10
2022-08-17T15:07:31.371Z,31.10
2022-08-17T15:10:01.612Z,31.10
2022-08-17T15:12:33.063Z,31.10
2022-08-17T15:15:01.647Z,31.10
2022-08-17T15:17:44.961Z,31.20
2022-08-17T15:20:20.769Z,31.20
2022-08-17T15:22:56.022Z,31.20
2022-08-17T15:25:27.765Z,31.20
2022-08-17T15:27:55.958Z,31.20
2022-08-17T15:30:23.652Z,31.20
2022-08-17T15:32:55.103Z,31.20
2022-08-17T15:35:29.158Z,31.20
2022-08-17T15:38:08.100Z,31.20
2022-08-17T15:40:43.038Z,31.20
2022-08-17T15:43:12.857Z,31.20
2022-08-17T15:45:40.408Z,31.20
2022-08-17T15:48:07.531Z,31.30
2022-08-17T15:50:34.548Z,31.30
2022-08-17T15:53:03.380Z,31.30
2022-08-17T15:55:32.172Z,31.30
2022-08-17T15:57:59.205Z,31.30
2022-08-17T16:00:28.478Z,31.30
2022-08-17T16:03:45.087Z,31.30
2022-08-17T16:05:43.343Z,31.40
2022-08-17T16:08:11.136Z,31.40
2022-08-17T16:10:38.536Z,31.40
2022-08-17T16:13:05.706Z,31.40
2022-08-17T16:15:44.659Z,31.40
2022-08-17T16:18:18.067Z,31.40
2022-08-17T16:20:44.901Z,31.40
2022-08-17T16:23:15.076Z,31.40
2022-08-17T16:25:52.195Z,31.40
2022-08-17T16:28:21.838Z,31.40
2022-08-17T16:30:48.637Z,31.40
2022-08-17T16:33:16.709Z,31.50
2022-08-17T16:35:43.925Z,31.40
2022-08-17T16:38:12.459Z,31.50
2022-08-17T16:40:40.453Z,31.40
2022-08-17T16:43:10.605Z,31.40
2022-08-17T16:45:40.373Z,31.40
2022-08-17T16:48:08.719Z,31.40
2022-08-17T16:50:36.288Z,31.40
2022-08-17T16:53:16.483Z,31.40
2022-08-17T16:55:48.148Z,31.40
2022-08-17T16:58:15.725Z,31.40
2022-08-17T17:00:44.189Z,31.40
2022-08-17T17:03:18.129Z,31.40
2022-08-17T17:06:06.369Z,31.40
2022-08-17T17:08:46.750Z,31.40
2022-08-17T17:11:23.081Z,31.30
2022-08-17T17:13:58.406Z,31.40
2022-08-17T17:16:47.719Z,31.30
2022-08-17T17:19:35.861Z,31.30
2022-08-17T17:22:15.552Z,31.30
2022-08-17T17:25:16.484Z,31.30
2022-08-17T17:28:09.328Z,31.30
2022-08-17T17:31:02.391Z,31.30
2022-08-17T17:33:45.101Z,31.30
2022-08-17T17:36:32.619Z,31.30
2022-08-17T17:39:05.545Z,31.30
2022-08-17T17:41:58.303Z,31.20
2022-08-17T17:44:30.429Z,31.20
2022-08-17T17:47:00.267Z,31.30
2022-08-17T17:49:39.853Z,31.20
2022-08-17T17:52:19.899Z,31.20
2022-08-17T17:54:56.344Z,31.20
2022-08-17T17:57:32.458Z,31.20
2022-08-17T18:00:13.697Z,31.20
2022-08-17T18:02:58.016Z,31.20
2022-08-17T18:05:38.971Z,31.20
2022-08-17T18:08:11.665Z,31.20
2022-08-17T18:10:55.739Z,31.10
2022-08-17T18:14:14.289Z,31.10
2022-08-17T18:16:43.031Z,31.10
2022-08-17T18:19:16.446Z,31.10
2022-08-17T18:21:48.906Z,31.10
2022-08-17T18:24:33.353Z,31.00
2022-08-17T18:27:02.611Z,31.00
2022-08-17T18:29:42.724Z,31.00
2022-08-17T18:32:18.280Z,31.00
2022-08-17T18:34:48.476Z,30.90
2022-08-17T18:37:33.504Z,30.90
2022-08-17T18:40:20.181Z,30.90
2022-08-17T18:42:59.630Z,30.90
2022-08-17T18:45:49.476Z,30.90
2022-08-17T18:48:32.827Z,30.80
2022-08-17T18:51:33.204Z,30.70
2022-08-17T18:54:22.031Z,30.60
2022-08-17T18:56:50.077Z,30.60
2022-08-17T18:59:39.690Z,30.60
2022-08-17T19:02:22.058Z,30.50
2022-08-17T19:05:28.075Z,30.50
2022-08-17T19:08:16.005Z,30.50
2022-08-17T19:10:47.059Z,30.40
2022-08-17T19:13:24.111Z,30.40
2022-08-17T19:16:11.874Z,30.30
2022-08-17T19:18:47.905Z,30.30
2022-08-17T19:21:30.434Z,30.30
2022-08-17T19:24:14.497Z,30.30
2022-08-17T19:26:54.800Z,30.20
2022-08-17T19:30:04.027Z,30.20
2022-08-17T19:32:35.774Z,30.10
2022-08-17T19:35:05.907Z,30.10
2022-08-17T19:37:58.589Z,30.10
2022-08-17T19:40:51.886Z,30.00
2022-08-17T19:43:36.820Z,30.00
2022-08-17T19:46:13.941Z,29.90
2022-08-17T19:48:46.323Z,29.90
2022-08-17T19:51:46.413Z,29.80
2022-08-17T19:54:31.295Z,29.70
2022-08-17T19:57:21.224Z,29.70
2022-08-17T20:00:00.338Z,29.60
2022-08-17T20:02:52.477Z,29.60
2022-08-17T20:06:08.668Z,29.50
2022-08-17T20:08:33.911Z,29.50
2022-08-17T20:11:20.805Z,29.40
2022-08-17T20:13:55.863Z,29.40
2022-08-17T20:16:24.649Z,29.40
2022-08-17T20:18:51.469Z,29.40
2022-08-17T20:21:34.713Z,29.40
2022-08-17T20:24:28.528Z,29.30
2022-08-17T20:26:59.337Z,29.30
2022-08-17T20:29:37.126Z,29.30
2022-08-17T20:32:14.825Z,29.30
2022-08-17T20:34:46.446Z,29.20
2022-08-17T20:37:13.188Z,29.20
2022-08-17T20:39:44.406Z,29.20
2022-08-17T20:42:20.230Z,29.20
2022-08-17T20:44:49.895Z,29.20
2022-08-17T20:47:27.244Z,29.10
2022-08-17T20:50:06.955Z,29.10
2022-08-17T20:52:52.739Z,29.10
2022-08-17T20:55:51.831Z,29.10
2022-08-17T20:58:31.105Z,29.00
2022-08-17T21:00:58.856Z,29.00
2022-08-17T21:03:32.233Z,29.00
2022-08-17T21:06:18.257Z,29.00
2022-08-17T21:08:53.270Z,28.90
2022-08-17T21:11:57.009Z,28.80
2022-08-17T21:15:03.247Z,28.80
2022-08-17T21:18:06.679Z,28.80
2022-08-17T21:20:56.981Z,28.80
2022-08-17T21:23:52.042Z,28.70
2022-08-17T21:26:50.652Z,28.70
2022-08-17T21:29:31.310Z,28.60
2022-08-17T21:32:02.625Z,28.60
2022-08-17T21:34:34.745Z,28.50
2022-08-17T21:37:20.578Z,28.40
2022-08-17T21:40:01.193Z,28.30
2022-08-17T21:42:34.507Z,28.30
2022-08-17T21:45:10.495Z,28.20
2022-08-17T21:47:43.339Z,28.20
2022-08-17T21:50:23.108Z,28.20
2022-08-17T21:52:54.109Z,28.20
2022-08-17T21:55:29.684Z,28.10
2022-08-17T21:58:13.425Z,28.10
2022-08-17T22:00:44.584Z,28.10
2022-08-17T22:03:23.957Z,28.10
2022-08-17T22:05:51.541Z,28.10
2022-08-17T22:08:24.544Z,28.10
2022-08-17T22:11:00.153Z,28.10
2022-08-17T22:13:29.746Z,28.10
2022-08-17T22:16:28.703Z,28.00
2022-08-17T22:18:58.798Z,28.10
2022-08-17T22:21:26.239Z,28.10
2022-08-17T22:24:04.347Z,28.00
2022-08-17T22:27:22.589Z,28.00
2022-08-17T22:29:57.105Z,28.00
2022-08-17T22:32:41.416Z,28.00
2022-08-17T22:35:39.029Z,27.90
2022-08-17T22:38:18.283Z,27.90
2022-08-17T22:40:54.505Z,27.90
2022-08-17T22:43:26.431Z,27.90
2022-08-17T22:45:56.872Z,27.90
2022-08-17T22:48:27.379Z,27.90
2022-08-17T22:51:13.839Z,27.80
2022-08-17T22:54:08.861Z,27.80
2022-08-17T22:56:54.733Z,27.80
2022-08-17T22:59:55.493Z,27.80
2022-08-17T23:02:24.911Z,27.80
2022-08-17T23:05:12.979Z,27.80
2022-08-17T23:07:40.550Z,27.80
2022-08-17T23:10:09.767Z,27.80
2022-08-17T23:12:39.814Z,27.80
2022-08-17T23:15:19.301Z,27.80
2022-08-17T23:17:46.691Z,27.80
2022-08-17T23:20:17.679Z,27.80
2022-08-17T23:22:51.213Z,27.80
2022-08-17T23:25:29.701Z,27.80
2022-08-17T23:27:58.435Z,27.80
2022-08-17T23:30:25.642Z,27.80
2022-08-17T23:32:56.505Z,27.80
2022-08-17T23:35:39.651Z,27.80
2022-08-17T23:38:09.650Z,27.70
2022-08-17T23:40:37.858Z,27.80
2022-08-17T23:43:24.584Z,27.80
2022-08-17T23:45:54.719Z,27.80
2022-08-17T23:48:28.581Z,27.80
2022-08-17T23:51:04.220Z,27.80
2022-08-17T23:53:34.390Z,27.80
2022-08-17T23:56:09.174Z,27.80
2022-08-17T23:58:38.638Z,27.80
